sensor_id;sensor_type;location;lat;lon;timestamp;P1;durP1;ratioP1;P2;durP2;ratioP2
5125;SDS011;63008;53.112;8.896;2023-08-20T00:01:30;20.37;;;15.40;;
5125;SDS011;63008;53.112;8.896;2023-08-20T00:03:31;22.40;;;14.17;;
5125;SDS011;63008;53.112;8.896;2023-08-20T00:05:32;24.80;;;16.73;;
5125;SDS011;63008;53.112;8.896;2023-08-20T00:07:34;27.83;;;18.60;;
5125;SDS011;63008;53.112;8.896;2023-08-20T00:09:35;20.07;;;15.53;;
5125;SDS011;63008;53.112;8.896;2023-08-20T00:11:36;23.80;;;16.47;;
5125;SDS011;63008;53.112;8.896;2023-08-20T00:13:37;23.27;;;17.00;;
5125;SDS011;63008;53.112;8.896;2023-08-20T00:15:38;27.50;;;16.90;;
5125;SDS011;63008;53.112;8.896;2023-08-20T00:17:40;24.37;;;17.23;;
5125;SDS011;63008;53.112;8.896;2023-08-20T00:19:42;28.87;;;18.40;;
5125;SDS011;63008;53.112;8.896;2023-08-20T00:21:43;27.80;;;17.17;;
5125;SDS011;63008;53.112;8.896;2023-08-20T00:23:45;22.80;;;16.20;;
5125;SDS011;63008;53.112;8.896;2023-08-20T00:25:46;22.43;;;14.93;;
5125;SDS011;63008;53.112;8.896;2023-08-20T00:27:47;24.50;;;15.07;;
5125;SDS011;63008;53.112;8.896;2023-08-20T00:29:48;22.47;;;14.93;;
5125;SDS011;63008;53.112;8.896;2023-08-20T00:31:49;19.00;;;13.67;;
5125;SDS011;63008;53.112;8.896;2023-08-20T00:33:50;23.70;;;14.93;;
5125;SDS011;63008;53.112;8.896;2023-08-20T00:35:51;23.90;;;14.63;;
5125;SDS011;63008;53.112;8.896;2023-08-20T00:37:52;18.17;;;14.27;;
5125;SDS011;63008;53.112;8.896;2023-08-20T00:39:53;29.97;;;15.20;;
5125;SDS011;63008;53.112;8.896;2023-08-20T00:41:54;19.80;;;14.63;;
5125;SDS011;63008;53.112;8.896;2023-08-20T00:43:55;23.90;;;14.47;;
5125;SDS011;63008;53.112;8.896;2023-08-20T00:45:58;22.20;;;13.57;;
5125;SDS011;63008;53.112;8.896;2023-08-20T00:47:59;19.87;;;14.80;;
5125;SDS011;63008;53.112;8.896;2023-08-20T00:50:01;21.87;;;14.90;;
5125;SDS011;63008;53.112;8.896;2023-08-20T00:52:05;24.03;;;14.50;;
5125;SDS011;63008;53.112;8.896;2023-08-20T00:54:09;25.53;;;15.30;;
5125;SDS011;63008;53.112;8.896;2023-08-20T00:56:10;24.33;;;15.27;;
5125;SDS011;63008;53.112;8.896;2023-08-20T00:58:11;20.47;;;14.10;;
5125;SDS011;63008;53.112;8.896;2023-08-20T01:00:12;18.47;;;14.50;;
5125;SDS011;63008;53.112;8.896;2023-08-20T01:02:14;19.90;;;13.10;;
5125;SDS011;63008;53.112;8.896;2023-08-20T01:04:16;22.83;;;14.30;;
5125;SDS011;63008;53.112;8.896;2023-08-20T01:08:57;17.57;;;13.43;;
5125;SDS011;63008;53.112;8.896;2023-08-20T01:13:18;17.50;;;13.27;;
5125;SDS011;63008;53.112;8.896;2023-08-20T01:15:20;15.10;;;11.90;;
5125;SDS011;63008;53.112;8.896;2023-08-20T01:17:21;21.50;;;13.40;;
5125;SDS011;63008;53.112;8.896;2023-08-20T01:19:22;16.37;;;11.87;;
5125;SDS011;63008;53.112;8.896;2023-08-20T01:21:24;20.70;;;13.93;;
5125;SDS011;63008;53.112;8.896;2023-08-20T01:30:28;17.13;;;11.53;;
5125;SDS011;63008;53.112;8.896;2023-08-20T01:32:30;23.83;;;11.90;;
5125;SDS011;63008;53.112;8.896;2023-08-20T01:34:32;27.00;;;14.87;;
5125;SDS011;63008;53.112;8.896;2023-08-20T01:36:33;17.67;;;11.80;;
5125;SDS011;63008;53.112;8.896;2023-08-20T01:38:34;16.53;;;11.47;;
5125;SDS011;63008;53.112;8.896;2023-08-20T01:40:34;20.30;;;12.30;;
5125;SDS011;63008;53.112;8.896;2023-08-20T01:42:36;24.93;;;13.50;;
5125;SDS011;63008;53.112;8.896;2023-08-20T01:44:38;15.33;;;12.50;;
5125;SDS011;63008;53.112;8.896;2023-08-20T01:46:39;14.87;;;11.77;;
5125;SDS011;63008;53.112;8.896;2023-08-20T01:48:39;16.30;;;13.07;;
5125;SDS011;63008;53.112;8.896;2023-08-20T01:50:40;25.67;;;13.60;;
5125;SDS011;63008;53.112;8.896;2023-08-20T01:52:41;14.43;;;12.10;;
5125;SDS011;63008;53.112;8.896;2023-08-20T01:54:42;21.10;;;11.97;;
5125;SDS011;63008;53.112;8.896;2023-08-20T01:56:43;18.40;;;11.50;;
5125;SDS011;63008;53.112;8.896;2023-08-20T01:58:44;15.40;;;10.90;;
5125;SDS011;63008;53.112;8.896;2023-08-20T02:00:45;18.90;;;12.57;;
5125;SDS011;63008;53.112;8.896;2023-08-20T02:02:46;15.20;;;11.80;;
5125;SDS011;63008;53.112;8.896;2023-08-20T02:04:47;16.97;;;13.60;;
5125;SDS011;63008;53.112;8.896;2023-08-20T02:06:48;19.33;;;13.70;;
5125;SDS011;63008;53.112;8.896;2023-08-20T02:08:49;16.73;;;12.67;;
5125;SDS011;63008;53.112;8.896;2023-08-20T02:10:54;19.43;;;12.00;;
5125;SDS011;63008;53.112;8.896;2023-08-20T02:13:00;16.17;;;11.60;;
5125;SDS011;63008;53.112;8.896;2023-08-20T02:15:01;13.37;;;11.80;;
5125;SDS011;63008;53.112;8.896;2023-08-20T02:17:04;16.83;;;12.10;;
5125;SDS011;63008;53.112;8.896;2023-08-20T02:19:05;16.10;;;11.80;;
5125;SDS011;63008;53.112;8.896;2023-08-20T02:21:07;19.57;;;11.37;;
5125;SDS011;63008;53.112;8.896;2023-08-20T02:23:08;16.60;;;11.87;;
5125;SDS011;63008;53.112;8.896;2023-08-20T02:25:09;15.30;;;12.23;;
5125;SDS011;63008;53.112;8.896;2023-08-20T02:27:10;22.70;;;12.00;;
5125;SDS011;63008;53.112;8.896;2023-08-20T02:29:11;17.23;;;11.20;;
5125;SDS011;63008;53.112;8.896;2023-08-20T02:31:12;18.60;;;11.57;;
5125;SDS011;63008;53.112;8.896;2023-08-20T02:33:13;16.87;;;11.80;;
5125;SDS011;63008;53.112;8.896;2023-08-20T02:35:14;14.57;;;11.20;;
5125;SDS011;63008;53.112;8.896;2023-08-20T02:37:17;16.63;;;12.80;;
5125;SDS011;63008;53.112;8.896;2023-08-20T02:39:18;21.77;;;13.60;;
5125;SDS011;63008;53.112;8.896;2023-08-20T02:41:21;14.57;;;11.80;;
5125;SDS011;63008;53.112;8.896;2023-08-20T02:43:22;18.03;;;12.30;;
5125;SDS011;63008;53.112;8.896;2023-08-20T02:45:23;18.00;;;12.60;;
5125;SDS011;63008;53.112;8.896;2023-08-20T02:47:24;17.40;;;12.97;;
5125;SDS011;63008;53.112;8.896;2023-08-20T02:49:25;20.80;;;13.33;;
5125;SDS011;63008;53.112;8.896;2023-08-20T02:51:26;17.53;;;12.43;;
5125;SDS011;63008;53.112;8.896;2023-08-20T02:53:27;16.57;;;12.87;;
5125;SDS011;63008;53.112;8.896;2023-08-20T02:55:28;18.70;;;12.70;;
5125;SDS011;63008;53.112;8.896;2023-08-20T02:57:29;16.43;;;13.30;;
5125;SDS011;63008;53.112;8.896;2023-08-20T02:59:30;17.63;;;13.90;;
5125;SDS011;63008;53.112;8.896;2023-08-20T03:01:31;16.50;;;13.27;;
5125;SDS011;63008;53.112;8.896;2023-08-20T03:03:32;19.70;;;12.37;;
5125;SDS011;63008;53.112;8.896;2023-08-20T03:05:34;18.50;;;13.90;;
5125;SDS011;63008;53.112;8.896;2023-08-20T03:07:35;17.37;;;13.37;;
5125;SDS011;63008;53.112;8.896;2023-08-20T03:09:36;16.80;;;12.50;;
5125;SDS011;63008;53.112;8.896;2023-08-20T03:11:37;15.53;;;12.80;;
5125;SDS011;63008;53.112;8.896;2023-08-20T03:13:38;21.27;;;12.43;;
5125;SDS011;63008;53.112;8.896;2023-08-20T03:15:39;18.60;;;12.77;;
5125;SDS011;63008;53.112;8.896;2023-08-20T03:17:40;18.60;;;11.97;;
5125;SDS011;63008;53.112;8.896;2023-08-20T03:19:53;16.27;;;11.53;;
5125;SDS011;63008;53.112;8.896;2023-08-20T03:21:58;14.87;;;10.60;;
5125;SDS011;63008;53.112;8.896;2023-08-20T03:23:59;18.27;;;11.80;;
5125;SDS011;63008;53.112;8.896;2023-08-20T03:25:59;23.80;;;12.40;;
5125;SDS011;63008;53.112;8.896;2023-08-20T03:28:00;14.23;;;12.20;;
5125;SDS011;63008;53.112;8.896;2023-08-20T03:30:02;16.20;;;12.20;;
5125;SDS011;63008;53.112;8.896;2023-08-20T03:32:04;15.00;;;11.13;;
5125;SDS011;63008;53.112;8.896;2023-08-20T03:34:05;18.27;;;12.00;;
5125;SDS011;63008;53.112;8.896;2023-08-20T03:36:06;17.20;;;11.73;;
5125;SDS011;63008;53.112;8.896;2023-08-20T03:38:07;11.87;;;9.63;;
5125;SDS011;63008;53.112;8.896;2023-08-20T03:40:08;12.80;;;10.97;;
5125;SDS011;63008;53.112;8.896;2023-08-20T03:42:10;14.87;;;9.50;;
5125;SDS011;63008;53.112;8.896;2023-08-20T03:44:11;14.90;;;9.80;;
5125;SDS011;63008;53.112;8.896;2023-08-20T03:46:12;11.37;;;10.03;;
5125;SDS011;63008;53.112;8.896;2023-08-20T03:48:12;16.43;;;10.90;;
5125;SDS011;63008;53.112;8.896;2023-08-20T03:50:13;14.97;;;9.57;;
5125;SDS011;63008;53.112;8.896;2023-08-20T03:52:14;23.67;;;10.80;;
5125;SDS011;63008;53.112;8.896;2023-08-20T03:54:15;13.90;;;10.00;;
5125;SDS011;63008;53.112;8.896;2023-08-20T03:56:16;11.10;;;8.83;;
5125;SDS011;63008;53.112;8.896;2023-08-20T03:58:17;13.10;;;10.03;;
5125;SDS011;63008;53.112;8.896;2023-08-20T04:00:18;11.70;;;9.90;;
5125;SDS011;63008;53.112;8.896;2023-08-20T04:02:19;14.20;;;10.73;;
5125;SDS011;63008;53.112;8.896;2023-08-20T04:04:20;16.30;;;10.50;;
5125;SDS011;63008;53.112;8.896;2023-08-20T04:06:22;12.37;;;10.40;;
5125;SDS011;63008;53.112;8.896;2023-08-20T04:08:23;13.67;;;10.10;;
5125;SDS011;63008;53.112;8.896;2023-08-20T04:10:24;13.53;;;11.67;;
5125;SDS011;63008;53.112;8.896;2023-08-20T04:12:25;16.23;;;11.73;;
5125;SDS011;63008;53.112;8.896;2023-08-20T04:14:26;18.80;;;11.87;;
5125;SDS011;63008;53.112;8.896;2023-08-20T04:16:27;13.97;;;10.70;;
5125;SDS011;63008;53.112;8.896;2023-08-20T04:18:30;17.53;;;12.17;;
5125;SDS011;63008;53.112;8.896;2023-08-20T04:20:31;15.27;;;11.33;;
5125;SDS011;63008;53.112;8.896;2023-08-20T04:22:32;15.60;;;11.77;;
5125;SDS011;63008;53.112;8.896;2023-08-20T04:24:33;17.27;;;11.27;;
5125;SDS011;63008;53.112;8.896;2023-08-20T04:26:34;16.87;;;12.73;;
5125;SDS011;63008;53.112;8.896;2023-08-20T04:28:35;14.80;;;10.50;;
5125;SDS011;63008;53.112;8.896;2023-08-20T04:30:36;14.10;;;10.97;;
5125;SDS011;63008;53.112;8.896;2023-08-20T04:32:37;16.90;;;10.30;;
5125;SDS011;63008;53.112;8.896;2023-08-20T04:34:38;19.63;;;10.07;;
5125;SDS011;63008;53.112;8.896;2023-08-20T04:36:39;13.57;;;10.77;;
5125;SDS011;63008;53.112;8.896;2023-08-20T04:38:40;13.60;;;10.23;;
5125;SDS011;63008;53.112;8.896;2023-08-20T04:40:41;18.90;;;10.50;;
5125;SDS011;63008;53.112;8.896;2023-08-20T04:42:42;12.20;;;8.90;;
5125;SDS011;63008;53.112;8.896;2023-08-20T04:44:43;11.80;;;9.80;;
5125;SDS011;63008;53.112;8.896;2023-08-20T04:46:44;10.10;;;9.00;;
5125;SDS011;63008;53.112;8.896;2023-08-20T04:48:45;11.80;;;9.90;;
5125;SDS011;63008;53.112;8.896;2023-08-20T04:50:46;14.43;;;9.87;;
5125;SDS011;63008;53.112;8.896;2023-08-20T04:52:47;22.17;;;11.00;;
5125;SDS011;63008;53.112;8.896;2023-08-20T04:54:48;20.40;;;10.67;;
5125;SDS011;63008;53.112;8.896;2023-08-20T04:56:50;13.13;;;11.07;;
5125;SDS011;63008;53.112;8.896;2023-08-20T04:58:50;14.37;;;11.40;;
5125;SDS011;63008;53.112;8.896;2023-08-20T05:00:51;19.23;;;12.87;;
5125;SDS011;63008;53.112;8.896;2023-08-20T05:02:52;17.80;;;13.13;;
5125;SDS011;63008;53.112;8.896;2023-08-20T05:04:53;19.27;;;11.50;;
5125;SDS011;63008;53.112;8.896;2023-08-20T05:06:54;17.77;;;13.50;;
5125;SDS011;63008;53.112;8.896;2023-08-20T05:08:55;17.87;;;12.07;;
5125;SDS011;63008;53.112;8.896;2023-08-20T05:10:56;16.20;;;11.60;;
5125;SDS011;63008;53.112;8.896;2023-08-20T05:12:57;18.37;;;12.23;;
5125;SDS011;63008;53.112;8.896;2023-08-20T05:14:58;16.07;;;12.23;;
5125;SDS011;63008;53.112;8.896;2023-08-20T05:16:59;16.83;;;12.63;;
5125;SDS011;63008;53.112;8.896;2023-08-20T05:19:00;23.10;;;13.83;;
5125;SDS011;63008;53.112;8.896;2023-08-20T05:21:01;18.87;;;14.43;;
5125;SDS011;63008;53.112;8.896;2023-08-20T05:23:02;15.43;;;12.00;;
5125;SDS011;63008;53.112;8.896;2023-08-20T05:25:04;18.83;;;13.23;;
5125;SDS011;63008;53.112;8.896;2023-08-20T05:27:10;15.70;;;12.30;;
5125;SDS011;63008;53.112;8.896;2023-08-20T05:29:15;19.97;;;13.17;;
5125;SDS011;63008;53.112;8.896;2023-08-20T05:31:16;25.40;;;13.90;;
5125;SDS011;63008;53.112;8.896;2023-08-20T05:33:17;18.30;;;11.70;;
5125;SDS011;63008;53.112;8.896;2023-08-20T05:35:18;21.57;;;12.40;;
5125;SDS011;63008;53.112;8.896;2023-08-20T05:37:19;19.73;;;13.37;;
5125;SDS011;63008;53.112;8.896;2023-08-20T05:39:20;16.27;;;12.97;;
5125;SDS011;63008;53.112;8.896;2023-08-20T05:41:21;17.77;;;13.43;;
5125;SDS011;63008;53.112;8.896;2023-08-20T05:43:22;22.23;;;13.80;;
5125;SDS011;63008;53.112;8.896;2023-08-20T05:45:23;19.10;;;13.03;;
5125;SDS011;63008;53.112;8.896;2023-08-20T05:47:24;16.33;;;12.07;;
5125;SDS011;63008;53.112;8.896;2023-08-20T05:49:25;24.13;;;14.40;;
5125;SDS011;63008;53.112;8.896;2023-08-20T05:51:26;22.23;;;14.77;;
5125;SDS011;63008;53.112;8.896;2023-08-20T05:53:27;20.70;;;13.80;;
5125;SDS011;63008;53.112;8.896;2023-08-20T05:55:28;25.30;;;13.93;;
5125;SDS011;63008;53.112;8.896;2023-08-20T05:57:29;19.77;;;12.80;;
5125;SDS011;63008;53.112;8.896;2023-08-20T05:59:30;21.37;;;14.00;;
5125;SDS011;63008;53.112;8.896;2023-08-20T06:01:31;21.17;;;12.77;;
5125;SDS011;63008;53.112;8.896;2023-08-20T06:03:32;21.90;;;13.50;;
5125;SDS011;63008;53.112;8.896;2023-08-20T06:05:33;23.40;;;13.70;;
5125;SDS011;63008;53.112;8.896;2023-08-20T06:07:34;22.83;;;12.83;;
5125;SDS011;63008;53.112;8.896;2023-08-20T06:09:35;23.43;;;13.60;;
5125;SDS011;63008;53.112;8.896;2023-08-20T06:11:36;22.23;;;12.30;;
5125;SDS011;63008;53.112;8.896;2023-08-20T06:13:37;18.10;;;11.60;;
5125;SDS011;63008;53.112;8.896;2023-08-20T06:15:38;24.07;;;12.37;;
5125;SDS011;63008;53.112;8.896;2023-08-20T06:17:39;18.17;;;12.50;;
5125;SDS011;63008;53.112;8.896;2023-08-20T06:19:40;21.37;;;11.90;;
5125;SDS011;63008;53.112;8.896;2023-08-20T06:21:41;19.57;;;11.53;;
5125;SDS011;63008;53.112;8.896;2023-08-20T06:23:42;15.67;;;11.23;;
5125;SDS011;63008;53.112;8.896;2023-08-20T06:25:43;13.60;;;12.03;;
5125;SDS011;63008;53.112;8.896;2023-08-20T06:27:44;19.30;;;11.67;;
5125;SDS011;63008;53.112;8.896;2023-08-20T06:29:45;16.13;;;11.60;;
5125;SDS011;63008;53.112;8.896;2023-08-20T06:31:46;14.00;;;10.60;;
5125;SDS011;63008;53.112;8.896;2023-08-20T06:33:47;17.03;;;9.80;;
5125;SDS011;63008;53.112;8.896;2023-08-20T06:35:48;17.87;;;10.57;;
5125;SDS011;63008;53.112;8.896;2023-08-20T06:37:49;18.93;;;10.23;;
5125;SDS011;63008;53.112;8.896;2023-08-20T06:39:51;13.00;;;8.93;;
5125;SDS011;63008;53.112;8.896;2023-08-20T06:41:52;10.17;;;8.07;;
5125;SDS011;63008;53.112;8.896;2023-08-20T06:43:53;16.07;;;9.00;;
5125;SDS011;63008;53.112;8.896;2023-08-20T06:45:54;15.30;;;8.83;;
5125;SDS011;63008;53.112;8.896;2023-08-20T06:47:55;13.23;;;7.90;;
5125;SDS011;63008;53.112;8.896;2023-08-20T06:49:56;10.10;;;7.67;;
5125;SDS011;63008;53.112;8.896;2023-08-20T06:51:57;12.33;;;7.27;;
5125;SDS011;63008;53.112;8.896;2023-08-20T06:53:58;17.33;;;8.03;;
5125;SDS011;63008;53.112;8.896;2023-08-20T06:55:59;13.07;;;7.47;;
5125;SDS011;63008;53.112;8.896;2023-08-20T06:58:00;9.70;;;6.20;;
5125;SDS011;63008;53.112;8.896;2023-08-20T07:00:01;10.30;;;6.23;;
5125;SDS011;63008;53.112;8.896;2023-08-20T07:02:02;7.33;;;6.10;;
5125;SDS011;63008;53.112;8.896;2023-08-20T07:04:04;8.60;;;6.57;;
5125;SDS011;63008;53.112;8.896;2023-08-20T07:06:05;8.47;;;5.13;;
5125;SDS011;63008;53.112;8.896;2023-08-20T07:08:06;8.90;;;4.80;;
5125;SDS011;63008;53.112;8.896;2023-08-20T07:10:07;11.73;;;4.70;;
5125;SDS011;63008;53.112;8.896;2023-08-20T07:12:08;10.00;;;4.70;;
5125;SDS011;63008;53.112;8.896;2023-08-20T07:14:09;14.20;;;4.83;;
5125;SDS011;63008;53.112;8.896;2023-08-20T07:16:10;8.73;;;3.60;;
5125;SDS011;63008;53.112;8.896;2023-08-20T07:18:11;7.10;;;4.20;;
5125;SDS011;63008;53.112;8.896;2023-08-20T07:20:13;8.30;;;3.80;;
5125;SDS011;63008;53.112;8.896;2023-08-20T07:22:14;5.03;;;2.97;;
5125;SDS011;63008;53.112;8.896;2023-08-20T07:24:15;8.97;;;2.83;;
5125;SDS011;63008;53.112;8.896;2023-08-20T07:26:16;8.30;;;3.60;;
5125;SDS011;63008;53.112;8.896;2023-08-20T07:28:17;8.03;;;3.40;;
5125;SDS011;63008;53.112;8.896;2023-08-20T07:30:27;9.77;;;3.70;;
5125;SDS011;63008;53.112;8.896;2023-08-20T07:32:28;6.97;;;3.10;;
5125;SDS011;63008;53.112;8.896;2023-08-20T07:34:29;9.40;;;3.33;;
5125;SDS011;63008;53.112;8.896;2023-08-20T07:36:34;9.70;;;3.33;;
5125;SDS011;63008;53.112;8.896;2023-08-20T07:38:35;9.10;;;3.30;;
5125;SDS011;63008;53.112;8.896;2023-08-20T07:40:42;10.00;;;3.27;;
5125;SDS011;63008;53.112;8.896;2023-08-20T07:42:43;7.53;;;3.17;;
5125;SDS011;63008;53.112;8.896;2023-08-20T07:44:44;16.53;;;3.80;;
5125;SDS011;63008;53.112;8.896;2023-08-20T07:46:45;11.57;;;2.73;;
5125;SDS011;63008;53.112;8.896;2023-08-20T07:48:46;5.63;;;2.30;;
5125;SDS011;63008;53.112;8.896;2023-08-20T07:50:47;14.63;;;2.47;;
5125;SDS011;63008;53.112;8.896;2023-08-20T07:52:48;6.70;;;1.80;;
5125;SDS011;63008;53.112;8.896;2023-08-20T07:54:49;10.67;;;2.90;;
5125;SDS011;63008;53.112;8.896;2023-08-20T07:56:50;9.97;;;2.70;;
5125;SDS011;63008;53.112;8.896;2023-08-20T07:58:51;5.30;;;2.13;;
5125;SDS011;63008;53.112;8.896;2023-08-20T08:00:52;6.80;;;2.40;;
5125;SDS011;63008;53.112;8.896;2023-08-20T08:02:53;11.00;;;2.30;;
5125;SDS011;63008;53.112;8.896;2023-08-20T08:04:54;5.03;;;2.30;;
5125;SDS011;63008;53.112;8.896;2023-08-20T08:06:55;5.53;;;2.37;;
5125;SDS011;63008;53.112;8.896;2023-08-20T08:08:56;4.30;;;2.10;;
5125;SDS011;63008;53.112;8.896;2023-08-20T08:10:57;14.77;;;3.17;;
5125;SDS011;63008;53.112;8.896;2023-08-20T08:12:58;7.60;;;2.00;;
5125;SDS011;63008;53.112;8.896;2023-08-20T08:14:59;8.60;;;2.57;;
5125;SDS011;63008;53.112;8.896;2023-08-20T08:17:00;3.53;;;2.27;;
5125;SDS011;63008;53.112;8.896;2023-08-20T08:19:00;6.73;;;2.23;;
5125;SDS011;63008;53.112;8.896;2023-08-20T08:21:01;5.70;;;2.73;;
5125;SDS011;63008;53.112;8.896;2023-08-20T08:23:02;5.93;;;1.97;;
5125;SDS011;63008;53.112;8.896;2023-08-20T08:25:04;5.67;;;2.20;;
5125;SDS011;63008;53.112;8.896;2023-08-20T08:27:05;7.40;;;2.60;;
5125;SDS011;63008;53.112;8.896;2023-08-20T08:29:06;8.50;;;2.40;;
5125;SDS011;63008;53.112;8.896;2023-08-20T08:31:07;4.73;;;2.60;;
5125;SDS011;63008;53.112;8.896;2023-08-20T08:33:08;12.20;;;2.90;;
5125;SDS011;63008;53.112;8.896;2023-08-20T08:35:09;7.77;;;2.33;;
5125;SDS011;63008;53.112;8.896;2023-08-20T08:37:10;6.07;;;2.40;;
5125;SDS011;63008;53.112;8.896;2023-08-20T08:39:11;7.90;;;2.40;;
5125;SDS011;63008;53.112;8.896;2023-08-20T08:41:13;6.80;;;2.43;;
5125;SDS011;63008;53.112;8.896;2023-08-20T08:43:14;10.30;;;2.47;;
5125;SDS011;63008;53.112;8.896;2023-08-20T08:45:20;5.67;;;2.20;;
5125;SDS011;63008;53.112;8.896;2023-08-20T08:47:21;12.13;;;2.83;;
5125;SDS011;63008;53.112;8.896;2023-08-20T08:49:23;15.10;;;2.83;;
5125;SDS011;63008;53.112;8.896;2023-08-20T08:51:24;8.63;;;3.60;;
5125;SDS011;63008;53.112;8.896;2023-08-20T08:53:27;11.13;;;2.20;;
5125;SDS011;63008;53.112;8.896;2023-08-20T08:55:28;7.97;;;2.50;;
5125;SDS011;63008;53.112;8.896;2023-08-20T08:57:29;7.63;;;2.20;;
5125;SDS011;63008;53.112;8.896;2023-08-20T08:59:31;8.30;;;2.47;;
5125;SDS011;63008;53.112;8.896;2023-08-20T09:01:37;9.37;;;2.87;;
5125;SDS011;63008;53.112;8.896;2023-08-20T09:03:41;5.20;;;3.07;;
5125;SDS011;63008;53.112;8.896;2023-08-20T09:05:46;4.20;;;3.17;;
5125;SDS011;63008;53.112;8.896;2023-08-20T09:07:55;7.57;;;3.07;;
5125;SDS011;63008;53.112;8.896;2023-08-20T09:09:58;9.47;;;4.07;;
5125;SDS011;63008;53.112;8.896;2023-08-20T09:12:02;8.30;;;2.87;;
5125;SDS011;63008;53.112;8.896;2023-08-20T09:14:29;11.20;;;2.90;;
5125;SDS011;63008;53.112;8.896;2023-08-20T09:16:30;7.93;;;2.83;;
5125;SDS011;63008;53.112;8.896;2023-08-20T09:18:32;7.00;;;2.87;;
5125;SDS011;63008;53.112;8.896;2023-08-20T09:20:35;6.37;;;3.03;;
5125;SDS011;63008;53.112;8.896;2023-08-20T09:22:36;5.30;;;2.73;;
5125;SDS011;63008;53.112;8.896;2023-08-20T09:24:41;6.27;;;2.77;;
5125;SDS011;63008;53.112;8.896;2023-08-20T09:26:46;4.50;;;2.40;;
5125;SDS011;63008;53.112;8.896;2023-08-20T09:28:47;13.53;;;3.53;;
5125;SDS011;63008;53.112;8.896;2023-08-20T09:30:54;9.87;;;2.57;;
5125;SDS011;63008;53.112;8.896;2023-08-20T09:35:08;7.70;;;2.70;;
5125;SDS011;63008;53.112;8.896;2023-08-20T09:37:20;13.83;;;3.20;;
5125;SDS011;63008;53.112;8.896;2023-08-20T09:39:22;6.60;;;2.63;;
5125;SDS011;63008;53.112;8.896;2023-08-20T09:41:23;8.10;;;2.57;;
5125;SDS011;63008;53.112;8.896;2023-08-20T09:43:25;5.37;;;2.63;;
5125;SDS011;63008;53.112;8.896;2023-08-20T09:45:31;7.90;;;3.20;;
5125;SDS011;63008;53.112;8.896;2023-08-20T09:47:33;8.00;;;2.63;;
5125;SDS011;63008;53.112;8.896;2023-08-20T09:49:47;7.83;;;2.33;;
5125;SDS011;63008;53.112;8.896;2023-08-20T09:51:48;5.67;;;2.60;;
5125;SDS011;63008;53.112;8.896;2023-08-20T09:53:55;6.10;;;3.23;;
5125;SDS011;63008;53.112;8.896;2023-08-20T09:56:03;5.30;;;2.57;;
5125;SDS011;63008;53.112;8.896;2023-08-20T09:58:17;5.50;;;2.70;;
5125;SDS011;63008;53.112;8.896;2023-08-20T10:00:22;3.37;;;3.07;;
5125;SDS011;63008;53.112;8.896;2023-08-20T10:02:23;8.37;;;2.70;;
5125;SDS011;63008;53.112;8.896;2023-08-20T10:04:25;12.73;;;3.20;;
5125;SDS011;63008;53.112;8.896;2023-08-20T10:06:27;7.03;;;2.90;;
5125;SDS011;63008;53.112;8.896;2023-08-20T10:08:29;16.23;;;3.70;;
5125;SDS011;63008;53.112;8.896;2023-08-20T10:10:31;10.40;;;2.77;;
5125;SDS011;63008;53.112;8.896;2023-08-20T10:12:32;6.17;;;2.50;;
5125;SDS011;63008;53.112;8.896;2023-08-20T10:14:33;10.40;;;2.80;;
5125;SDS011;63008;53.112;8.896;2023-08-20T10:16:35;7.80;;;3.23;;
5125;SDS011;63008;53.112;8.896;2023-08-20T10:18:36;13.20;;;3.10;;
5125;SDS011;63008;53.112;8.896;2023-08-20T10:20:41;6.80;;;3.30;;
5125;SDS011;63008;53.112;8.896;2023-08-20T10:22:43;6.47;;;3.27;;
5125;SDS011;63008;53.112;8.896;2023-08-20T10:24:48;4.73;;;2.73;;
5125;SDS011;63008;53.112;8.896;2023-08-20T10:27:06;4.30;;;2.90;;
5125;SDS011;63008;53.112;8.896;2023-08-20T10:31:37;10.73;;;3.43;;
5125;SDS011;63008;53.112;8.896;2023-08-20T10:35:47;6.80;;;3.20;;
5125;SDS011;63008;53.112;8.896;2023-08-20T10:38:04;9.50;;;2.80;;
5125;SDS011;63008;53.112;8.896;2023-08-20T10:40:13;12.67;;;3.37;;
5125;SDS011;63008;53.112;8.896;2023-08-20T10:44:15;5.67;;;3.10;;
5125;SDS011;63008;53.112;8.896;2023-08-20T10:46:17;6.30;;;2.40;;
5125;SDS011;63008;53.112;8.896;2023-08-20T10:48:19;7.20;;;3.00;;
5125;SDS011;63008;53.112;8.896;2023-08-20T10:50:20;5.10;;;3.40;;
5125;SDS011;63008;53.112;8.896;2023-08-20T10:52:24;8.13;;;3.17;;
5125;SDS011;63008;53.112;8.896;2023-08-20T10:54:25;8.77;;;3.43;;
5125;SDS011;63008;53.112;8.896;2023-08-20T10:56:40;6.97;;;3.17;;
5125;SDS011;63008;53.112;8.896;2023-08-20T10:58:46;5.63;;;3.80;;
5125;SDS011;63008;53.112;8.896;2023-08-20T11:01:11;11.50;;;3.90;;
5125;SDS011;63008;53.112;8.896;2023-08-20T11:03:15;7.70;;;3.70;;
5125;SDS011;63008;53.112;8.896;2023-08-20T11:05:18;7.63;;;3.23;;
5125;SDS011;63008;53.112;8.896;2023-08-20T11:07:21;8.20;;;3.77;;
5125;SDS011;63008;53.112;8.896;2023-08-20T11:09:23;7.77;;;3.13;;
5125;SDS011;63008;53.112;8.896;2023-08-20T11:11:25;3.30;;;3.00;;
5125;SDS011;63008;53.112;8.896;2023-08-20T11:13:26;7.63;;;3.90;;
5125;SDS011;63008;53.112;8.896;2023-08-20T11:15:27;6.80;;;3.60;;
5125;SDS011;63008;53.112;8.896;2023-08-20T11:17:28;5.37;;;3.53;;
5125;SDS011;63008;53.112;8.896;2023-08-20T11:19:29;14.70;;;4.27;;
5125;SDS011;63008;53.112;8.896;2023-08-20T11:21:30;9.43;;;4.53;;
5125;SDS011;63008;53.112;8.896;2023-08-20T11:23:31;9.80;;;4.40;;
5125;SDS011;63008;53.112;8.896;2023-08-20T11:25:32;9.83;;;4.00;;
5125;SDS011;63008;53.112;8.896;2023-08-20T11:27:33;5.40;;;3.40;;
5125;SDS011;63008;53.112;8.896;2023-08-20T11:29:35;16.50;;;3.90;;
5125;SDS011;63008;53.112;8.896;2023-08-20T11:31:37;9.03;;;4.13;;
5125;SDS011;63008;53.112;8.896;2023-08-20T11:33:38;6.23;;;3.70;;
5125;SDS011;63008;53.112;8.896;2023-08-20T11:35:40;8.53;;;4.90;;
5125;SDS011;63008;53.112;8.896;2023-08-20T11:37:42;10.30;;;3.80;;
5125;SDS011;63008;53.112;8.896;2023-08-20T11:39:43;5.23;;;3.40;;
5125;SDS011;63008;53.112;8.896;2023-08-20T11:41:44;7.80;;;3.50;;
5125;SDS011;63008;53.112;8.896;2023-08-20T11:43:45;10.63;;;3.60;;
5125;SDS011;63008;53.112;8.896;2023-08-20T11:45:47;7.13;;;3.40;;
5125;SDS011;63008;53.112;8.896;2023-08-20T11:47:49;5.80;;;2.83;;
5125;SDS011;63008;53.112;8.896;2023-08-20T11:50:01;9.60;;;3.77;;
5125;SDS011;63008;53.112;8.896;2023-08-20T11:52:04;8.27;;;3.60;;
5125;SDS011;63008;53.112;8.896;2023-08-20T11:54:09;7.53;;;3.50;;
5125;SDS011;63008;53.112;8.896;2023-08-20T11:56:13;8.00;;;3.23;;
5125;SDS011;63008;53.112;8.896;2023-08-20T11:58:14;4.17;;;2.70;;
5125;SDS011;63008;53.112;8.896;2023-08-20T12:00:23;14.13;;;4.43;;
5125;SDS011;63008;53.112;8.896;2023-08-20T12:02:27;9.63;;;3.70;;
5125;SDS011;63008;53.112;8.896;2023-08-20T12:04:29;11.67;;;3.50;;
5125;SDS011;63008;53.112;8.896;2023-08-20T12:06:31;5.10;;;3.10;;
5125;SDS011;63008;53.112;8.896;2023-08-20T12:08:37;3.73;;;2.97;;
5125;SDS011;63008;53.112;8.896;2023-08-20T12:10:41;4.63;;;2.23;;
5125;SDS011;63008;53.112;8.896;2023-08-20T12:12:42;8.53;;;2.83;;
5125;SDS011;63008;53.112;8.896;2023-08-20T12:14:43;4.73;;;2.80;;
5125;SDS011;63008;53.112;8.896;2023-08-20T12:16:44;9.83;;;3.70;;
5125;SDS011;63008;53.112;8.896;2023-08-20T12:18:46;7.13;;;2.67;;
5125;SDS011;63008;53.112;8.896;2023-08-20T12:20:47;5.97;;;2.53;;
5125;SDS011;63008;53.112;8.896;2023-08-20T12:22:48;5.40;;;2.93;;
5125;SDS011;63008;53.112;8.896;2023-08-20T12:24:49;5.83;;;3.10;;
5125;SDS011;63008;53.112;8.896;2023-08-20T12:26:52;6.17;;;3.07;;
5125;SDS011;63008;53.112;8.896;2023-08-20T12:28:53;7.30;;;2.80;;
5125;SDS011;63008;53.112;8.896;2023-08-20T12:30:55;3.97;;;2.23;;
5125;SDS011;63008;53.112;8.896;2023-08-20T12:32:56;7.30;;;3.20;;
5125;SDS011;63008;53.112;8.896;2023-08-20T12:34:57;6.13;;;2.80;;